sensor_id;sensor_type;location;lat;lon;timestamp;P1;durP1;ratioP1;P2;durP2;ratioP2
21663;SDS011;10993;52.510;13.456;2023-06-26T00:04:06;11.85;;;7.47;;
21663;SDS011;10993;52.510;13.456;2023-06-26T00:09:06;9.97;;;7.30;;
21663;SDS011;10993;52.510;13.456;2023-06-26T00:14:08;13.48;;;8.25;;
21663;SDS011;10993;52.510;13.456;2023-06-26T00:19:09;11.73;;;7.47;;
21663;SDS011;10993;52.510;13.456;2023-06-26T00:24:09;12.73;;;8.38;;
21663;SDS011;10993;52.510;13.456;2023-06-26T00:29:11;12.02;;;7.60;;
21663;SDS011;10993;52.510;13.456;2023-06-26T00:34:11;11.80;;;8.40;;
21663;SDS011;10993;52.510;13.456;2023-06-26T00:39:12;10.43;;;8.23;;
21663;SDS011;10993;52.510;13.456;2023-06-26T00:44:14;11.52;;;8.35;;
21663;SDS011;10993;52.510;13.456;2023-06-26T00:49:14;11.40;;;8.43;;
21663;SDS011;10993;52.510;13.456;2023-06-26T00:54:14;12.48;;;8.05;;
21663;SDS011;10993;52.510;13.456;2023-06-26T00:59:21;11.98;;;8.63;;
21663;SDS011;10993;52.510;13.456;2023-06-26T01:04:21;11.40;;;8.45;;
21663;SDS011;10993;52.510;13.456;2023-06-26T01:09:27;12.43;;;9.18;;
21663;SDS011;10993;52.510;13.456;2023-06-26T01:14:29;14.55;;;8.90;;
21663;SDS011;10993;52.510;13.456;2023-06-26T01:19:32;10.82;;;8.25;;
21663;SDS011;10993;52.510;13.456;2023-06-26T01:24:33;11.70;;;8.45;;
21663;SDS011;10993;52.510;13.456;2023-06-26T01:29:38;12.68;;;8.48;;
21663;SDS011;10993;52.510;13.456;2023-06-26T01:34:40;16.00;;;9.10;;
21663;SDS011;10993;52.510;13.456;2023-06-26T01:39:42;13.98;;;8.93;;
21663;SDS011;10993;52.510;13.456;2023-06-26T01:44:44;12.05;;;9.00;;
21663;SDS011;10993;52.510;13.456;2023-06-26T01:49:46;12.50;;;9.15;;
21663;SDS011;10993;52.510;13.456;2023-06-26T01:54:53;13.75;;;9.20;;
21663;SDS011;10993;52.510;13.456;2023-06-26T01:59:58;12.02;;;9.02;;
21663;SDS011;10993;52.510;13.456;2023-06-26T02:04:59;11.30;;;8.70;;
21663;SDS011;10993;52.510;13.456;2023-06-26T02:09:59;11.30;;;9.55;;
21663;SDS011;10993;52.510;13.456;2023-06-26T02:15:01;13.02;;;9.60;;
21663;SDS011;10993;52.510;13.456;2023-06-26T02:20:02;12.90;;;9.65;;
21663;SDS011;10993;52.510;13.456;2023-06-26T02:25:03;13.10;;;9.38;;
21663;SDS011;10993;52.510;13.456;2023-06-26T02:30:07;17.15;;;10.10;;
21663;SDS011;10993;52.510;13.456;2023-06-26T02:35:08;13.73;;;9.40;;
21663;SDS011;10993;52.510;13.456;2023-06-26T02:40:09;12.55;;;9.52;;
21663;SDS011;10993;52.510;13.456;2023-06-26T02:45:11;13.57;;;9.73;;
21663;SDS011;10993;52.510;13.456;2023-06-26T02:50:11;13.27;;;10.32;;
21663;SDS011;10993;52.510;13.456;2023-06-26T02:55:12;13.73;;;10.33;;
21663;SDS011;10993;52.510;13.456;2023-06-26T03:00:14;16.42;;;10.05;;
21663;SDS011;10993;52.510;13.456;2023-06-26T03:05:15;12.27;;;10.00;;
21663;SDS011;10993;52.510;13.456;2023-06-26T03:10:15;13.68;;;10.25;;
21663;SDS011;10993;52.510;13.456;2023-06-26T03:15:17;13.20;;;10.20;;
21663;SDS011;10993;52.510;13.456;2023-06-26T03:20:19;14.55;;;11.18;;
21663;SDS011;10993;52.510;13.456;2023-06-26T03:25:19;14.75;;;11.20;;
21663;SDS011;10993;52.510;13.456;2023-06-26T03:30:21;14.45;;;11.07;;
21663;SDS011;10993;52.510;13.456;2023-06-26T03:35:21;13.50;;;10.57;;
21663;SDS011;10993;52.510;13.456;2023-06-26T03:40:22;15.88;;;11.88;;
21663;SDS011;10993;52.510;13.456;2023-06-26T03:45:24;15.40;;;11.35;;
21663;SDS011;10993;52.510;13.456;2023-06-26T03:50:24;14.63;;;11.48;;
21663;SDS011;10993;52.510;13.456;2023-06-26T03:55:24;15.37;;;10.57;;
21663;SDS011;10993;52.510;13.456;2023-06-26T04:00:26;14.27;;;10.90;;
21663;SDS011;10993;52.510;13.456;2023-06-26T04:05:26;14.75;;;10.95;;
21663;SDS011;10993;52.510;13.456;2023-06-26T04:10:27;13.77;;;10.30;;
21663;SDS011;10993;52.510;13.456;2023-06-26T04:15:29;16.10;;;10.20;;
21663;SDS011;10993;52.510;13.456;2023-06-26T04:20:29;12.43;;;9.32;;
21663;SDS011;10993;52.510;13.456;2023-06-26T04:25:30;11.02;;;8.68;;
21663;SDS011;10993;52.510;13.456;2023-06-26T04:30:31;11.10;;;8.50;;
21663;SDS011;10993;52.510;13.456;2023-06-26T04:35:32;11.43;;;9.10;;
21663;SDS011;10993;52.510;13.456;2023-06-26T04:40:36;12.73;;;10.07;;
21663;SDS011;10993;52.510;13.456;2023-06-26T04:45:38;12.63;;;9.43;;
21663;SDS011;10993;52.510;13.456;2023-06-26T04:50:39;13.65;;;10.48;;
21663;SDS011;10993;52.510;13.456;2023-06-26T04:55:40;12.48;;;9.45;;
21663;SDS011;10993;52.510;13.456;2023-06-26T05:00:41;15.10;;;9.30;;
21663;SDS011;10993;52.510;13.456;2023-06-26T05:05:42;10.77;;;8.60;;
21663;SDS011;10993;52.510;13.456;2023-06-26T05:10:43;10.05;;;8.63;;
21663;SDS011;10993;52.510;13.456;2023-06-26T05:15:45;12.75;;;8.68;;
21663;SDS011;10993;52.510;13.456;2023-06-26T05:20:46;12.35;;;9.00;;
21663;SDS011;10993;52.510;13.456;2023-06-26T05:25:47;10.40;;;8.68;;
21663;SDS011;10993;52.510;13.456;2023-06-26T05:30:49;12.05;;;9.43;;
21663;SDS011;10993;52.510;13.456;2023-06-26T05:35:50;11.20;;;8.10;;
21663;SDS011;10993;52.510;13.456;2023-06-26T05:40:52;10.75;;;8.52;;
21663;SDS011;10993;52.510;13.456;2023-06-26T05:45:54;11.75;;;8.10;;
21663;SDS011;10993;52.510;13.456;2023-06-26T05:50:54;11.10;;;7.80;;
21663;SDS011;10993;52.510;13.456;2023-06-26T05:55:55;11.25;;;7.82;;
21663;SDS011;10993;52.510;13.456;2023-06-26T06:00:58;11.40;;;7.68;;
21663;SDS011;10993;52.510;13.456;2023-06-26T06:05:58;8.65;;;6.82;;
21663;SDS011;10993;52.510;13.456;2023-06-26T06:10:59;7.22;;;5.80;;
21663;SDS011;10993;52.510;13.456;2023-06-26T06:16:01;7.88;;;6.30;;
21663;SDS011;10993;52.510;13.456;2023-06-26T06:21:01;8.88;;;6.38;;
21663;SDS011;10993;52.510;13.456;2023-06-26T06:26:02;7.50;;;5.53;;
21663;SDS011;10993;52.510;13.456;2023-06-26T06:31:03;10.67;;;5.90;;
21663;SDS011;10993;52.510;13.456;2023-06-26T06:36:04;8.38;;;5.53;;
21663;SDS011;10993;52.510;13.456;2023-06-26T06:41:04;7.85;;;5.38;;
21663;SDS011;10993;52.510;13.456;2023-06-26T06:46:06;7.50;;;4.60;;
21663;SDS011;10993;52.510;13.456;2023-06-26T06:51:07;7.68;;;5.30;;
21663;SDS011;10993;52.510;13.456;2023-06-26T06:56:07;7.30;;;4.30;;
21663;SDS011;10993;52.510;13.456;2023-06-26T07:01:09;9.60;;;5.00;;
21663;SDS011;10993;52.510;13.456;2023-06-26T07:06:09;9.63;;;4.25;;
21663;SDS011;10993;52.510;13.456;2023-06-26T07:11:10;8.07;;;4.27;;
21663;SDS011;10993;52.510;13.456;2023-06-26T07:16:11;7.20;;;4.32;;
21663;SDS011;10993;52.510;13.456;2023-06-26T07:21:12;5.95;;;4.32;;
21663;SDS011;10993;52.510;13.456;2023-06-26T07:26:13;6.22;;;3.78;;
21663;SDS011;10993;52.510;13.456;2023-06-26T07:31:17;6.88;;;4.57;;
21663;SDS011;10993;52.510;13.456;2023-06-26T07:36:17;6.00;;;4.03;;
21663;SDS011;10993;52.510;13.456;2023-06-26T07:41:17;5.27;;;4.30;;
21663;SDS011;10993;52.510;13.456;2023-06-26T07:46:19;5.63;;;3.33;;
21663;SDS011;10993;52.510;13.456;2023-06-26T07:51:19;5.65;;;3.60;;
21663;SDS011;10993;52.510;13.456;2023-06-26T07:56:20;5.57;;;2.80;;
21663;SDS011;10993;52.510;13.456;2023-06-26T08:01:21;4.72;;;3.28;;
21663;SDS011;10993;52.510;13.456;2023-06-26T08:06:22;4.50;;;3.38;;
21663;SDS011;10993;52.510;13.456;2023-06-26T08:11:22;4.20;;;3.30;;
21663;SDS011;10993;52.510;13.456;2023-06-26T08:16:24;5.23;;;2.93;;
21663;SDS011;10993;52.510;13.456;2023-06-26T08:21:24;4.50;;;3.15;;
21663;SDS011;10993;52.510;13.456;2023-06-26T08:26:25;4.40;;;2.97;;
21663;SDS011;10993;52.510;13.456;2023-06-26T08:31:29;3.95;;;2.63;;
21663;SDS011;10993;52.510;13.456;2023-06-26T08:36:34;4.30;;;2.60;;
21663;SDS011;10993;52.510;13.456;2023-06-26T08:41:36;5.97;;;2.75;;
21663;SDS011;10993;52.510;13.456;2023-06-26T08:46:37;4.63;;;2.80;;
21663;SDS011;10993;52.510;13.456;2023-06-26T08:51:38;3.95;;;2.03;;
21663;SDS011;10993;52.510;13.456;2023-06-26T08:56:45;3.75;;;2.45;;
21663;SDS011;10993;52.510;13.456;2023-06-26T09:01:50;3.55;;;2.30;;
21663;SDS011;10993;52.510;13.456;2023-06-26T09:06:51;4.10;;;2.40;;
21663;SDS011;10993;52.510;13.456;2023-06-26T09:11:52;3.80;;;2.40;;
21663;SDS011;10993;52.510;13.456;2023-06-26T09:16:53;3.03;;;2.10;;
21663;SDS011;10993;52.510;13.456;2023-06-26T09:21:54;4.35;;;2.08;;
21663;SDS011;10993;52.510;13.456;2023-06-26T09:26:54;3.50;;;2.10;;
21663;SDS011;10993;52.510;13.456;2023-06-26T09:31:57;4.65;;;2.45;;
21663;SDS011;10993;52.510;13.456;2023-06-26T09:36:59;3.10;;;2.00;;
21663;SDS011;10993;52.510;13.456;2023-06-26T09:42:02;3.55;;;2.50;;
21663;SDS011;10993;52.510;13.456;2023-06-26T09:47:05;4.40;;;2.20;;
21663;SDS011;10993;52.510;13.456;2023-06-26T09:52:06;5.25;;;3.53;;
21663;SDS011;10993;52.510;13.456;2023-06-26T09:57:07;3.40;;;2.33;;
21663;SDS011;10993;52.510;13.456;2023-06-26T10:02:09;3.63;;;2.70;;
21663;SDS011;10993;52.510;13.456;2023-06-26T10:07:11;4.40;;;2.40;;
21663;SDS011;10993;52.510;13.456;2023-06-26T10:12:15;5.35;;;2.80;;
21663;SDS011;10993;52.510;13.456;2023-06-26T10:17:20;3.60;;;2.58;;
21663;SDS011;10993;52.510;13.456;2023-06-26T10:22:21;4.05;;;2.85;;
21663;SDS011;10993;52.510;13.456;2023-06-26T10:27:28;3.67;;;2.42;;
21663;SDS011;10993;52.510;13.456;2023-06-26T10:32:35;3.55;;;2.30;;
21663;SDS011;10993;52.510;13.456;2023-06-26T10:37:43;5.95;;;2.72;;
21663;SDS011;10993;52.510;13.456;2023-06-26T10:42:44;5.35;;;2.20;;
21663;SDS011;10993;52.510;13.456;2023-06-26T10:47:46;4.17;;;2.33;;
21663;SDS011;10993;52.510;13.456;2023-06-26T11:03:33;3.25;;;2.38;;
21663;SDS011;10993;52.510;13.456;2023-06-26T11:08:43;3.70;;;2.38;;
21663;SDS011;10993;52.510;13.456;2023-06-26T11:13:45;5.20;;;2.47;;
21663;SDS011;10993;52.510;13.456;2023-06-26T11:18:47;3.45;;;2.35;;
21663;SDS011;10993;52.510;13.456;2023-06-26T11:23:49;7.50;;;2.22;;
21663;SDS011;10993;52.510;13.456;2023-06-26T11:28:51;3.22;;;1.95;;
21663;SDS011;10993;52.510;13.456;2023-06-26T11:33:53;4.03;;;2.38;;
21663;SDS011;10993;52.510;13.456;2023-06-26T11:38:55;3.95;;;2.70;;
21663;SDS011;10993;52.510;13.456;2023-06-26T11:43:56;6.35;;;2.60;;
21663;SDS011;10993;52.510;13.456;2023-06-26T11:49:03;3.90;;;2.53;;
21663;SDS011;10993;52.510;13.456;2023-06-26T11:54:04;5.95;;;3.22;;
21663;SDS011;10993;52.510;13.456;2023-06-26T11:59:05;4.03;;;2.70;;
21663;SDS011;10993;52.510;13.456;2023-06-26T12:04:08;3.55;;;2.70;;
21663;SDS011;10993;52.510;13.456;2023-06-26T12:09:10;5.25;;;2.80;;
21663;SDS011;10993;52.510;13.456;2023-06-26T12:14:12;4.43;;;2.60;;
21663;SDS011;10993;52.510;13.456;2023-06-26T12:19:14;5.03;;;2.85;;
21663;SDS011;10993;52.510;13.456;2023-06-26T12:24:15;4.30;;;3.17;;
21663;SDS011;10993;52.510;13.456;2023-06-26T12:29:17;3.92;;;2.83;;
21663;SDS011;10993;52.510;13.456;2023-06-26T12:34:21;5.35;;;2.90;;
21663;SDS011;10993;52.510;13.456;2023-06-26T12:39:27;4.00;;;2.80;;
21663;SDS011;10993;52.510;13.456;2023-06-26T12:44:28;4.25;;;2.80;;
21663;SDS011;10993;52.510;13.456;2023-06-26T12:49:32;5.57;;;3.22;;
21663;SDS011;10993;52.510;13.456;2023-06-26T12:54:34;6.40;;;3.25;;
21663;SDS011;10993;52.510;13.456;2023-06-26T12:59:35;4.63;;;3.28;;
21663;SDS011;10993;52.510;13.456;2023-06-26T13:04:38;7.05;;;3.45;;
21663;SDS011;10993;52.510;13.456;2023-06-26T13:09:44;4.70;;;3.47;;
21663;SDS011;10993;52.510;13.456;2023-06-26T13:14:46;6.10;;;3.60;;
21663;SDS011;10993;52.510;13.456;2023-06-26T13:19:47;5.82;;;3.63;;
21663;SDS011;10993;52.510;13.456;2023-06-26T13:24:48;6.22;;;3.65;;
21663;SDS011;10993;52.510;13.456;2023-06-26T13:29:48;6.18;;;3.50;;
21663;SDS011;10993;52.510;13.456;2023-06-26T13:34:50;4.40;;;3.10;;
21663;SDS011;10993;52.510;13.456;2023-06-26T13:39:50;5.97;;;3.85;;
21663;SDS011;10993;52.510;13.456;2023-06-26T13:44:51;6.00;;;3.78;;
21663;SDS011;10993;52.510;13.456;2023-06-26T13:49:52;9.52;;;4.10;;
21663;SDS011;10993;52.510;13.456;2023-06-26T13:54:53;6.32;;;4.00;;
21663;SDS011;10993;52.510;13.456;2023-06-26T13:59:53;5.82;;;3.78;;
21663;SDS011;10993;52.510;13.456;2023-06-26T14:04:55;7.07;;;4.10;;
21663;SDS011;10993;52.510;13.456;2023-06-26T14:09:55;7.03;;;3.83;;
21663;SDS011;10993;52.510;13.456;2023-06-26T14:14:56;5.80;;;4.10;;
21663;SDS011;10993;52.510;13.456;2023-06-26T14:19:57;6.33;;;4.10;;
21663;SDS011;10993;52.510;13.456;2023-06-26T14:24:59;8.60;;;5.07;;
21663;SDS011;10993;52.510;13.456;2023-06-26T14:29:59;12.97;;;4.80;;
21663;SDS011;10993;52.510;13.456;2023-06-26T14:35:01;9.83;;;3.87;;
21663;SDS011;10993;52.510;13.456;2023-06-26T14:40:01;8.65;;;3.85;;
21663;SDS011;10993;52.510;13.456;2023-06-26T14:45:02;6.43;;;3.45;;
21663;SDS011;10993;52.510;13.456;2023-06-26T14:50:06;8.35;;;3.95;;
21663;SDS011;10993;52.510;13.456;2023-06-26T14:55:08;6.53;;;3.55;;
21663;SDS011;10993;52.510;13.456;2023-06-26T15:00:08;9.45;;;4.93;;
21663;SDS011;10993;52.510;13.456;2023-06-26T15:05:11;12.50;;;7.43;;
21663;SDS011;10993;52.510;13.456;2023-06-26T15:10:11;12.02;;;7.32;;
21663;SDS011;10993;52.510;13.456;2023-06-26T15:15:11;12.50;;;9.32;;
21663;SDS011;10993;52.510;13.456;2023-06-26T15:20:14;12.70;;;8.52;;
21663;SDS011;10993;52.510;13.456;2023-06-26T15:25:15;11.18;;;6.68;;
21663;SDS011;10993;52.510;13.456;2023-06-26T15:30:15;5.68;;;4.03;;
21663;SDS011;10993;52.510;13.456;2023-06-26T15:35:17;8.75;;;4.53;;
21663;SDS011;10993;52.510;13.456;2023-06-26T15:40:17;6.97;;;3.80;;
21663;SDS011;10993;52.510;13.456;2023-06-26T15:45:18;5.55;;;3.78;;
21663;SDS011;10993;52.510;13.456;2023-06-26T15:50:20;7.78;;;5.22;;
21663;SDS011;10993;52.510;13.456;2023-06-26T15:55:20;8.75;;;4.70;;
21663;SDS011;10993;52.510;13.456;2023-06-26T16:00:20;8.03;;;5.27;;
21663;SDS011;10993;52.510;13.456;2023-06-26T16:05:22;9.02;;;6.00;;
21663;SDS011;10993;52.510;13.456;2023-06-26T16:10:22;10.23;;;6.25;;
21663;SDS011;10993;52.510;13.456;2023-06-26T16:15:23;8.75;;;6.18;;
21663;SDS011;10993;52.510;13.456;2023-06-26T16:20:25;11.75;;;6.65;;
21663;SDS011;10993;52.510;13.456;2023-06-26T16:25:25;10.20;;;6.68;;
21663;SDS011;10993;52.510;13.456;2023-06-26T16:30:26;9.27;;;6.15;;
21663;SDS011;10993;52.510;13.456;2023-06-26T16:35:27;7.78;;;5.90;;
21663;SDS011;10993;52.510;13.456;2023-06-26T16:40:30;9.25;;;6.28;;
21663;SDS011;10993;52.510;13.456;2023-06-26T16:45:30;8.15;;;5.80;;
21663;SDS011;10993;52.510;13.456;2023-06-26T16:50:32;8.88;;;5.93;;
21663;SDS011;10993;52.510;13.456;2023-06-26T16:55:32;12.30;;;6.82;;
21663;SDS011;10993;52.510;13.456;2023-06-26T17:00:33;9.83;;;6.47;;
21663;SDS011;10993;52.510;13.456;2023-06-26T17:05:36;9.27;;;6.15;;
21663;SDS011;10993;52.510;13.456;2023-06-26T17:10:37;9.32;;;6.20;;
21663;SDS011;10993;52.510;13.456;2023-06-26T17:15:37;11.98;;;7.20;;
21663;SDS011;10993;52.510;13.456;2023-06-26T17:20:39;9.15;;;5.95;;
21663;SDS011;10993;52.510;13.456;2023-06-26T17:25:39;10.05;;;5.65;;
21663;SDS011;10993;52.510;13.456;2023-06-26T17:30:40;7.82;;;5.60;;
21663;SDS011;10993;52.510;13.456;2023-06-26T17:35:43;8.52;;;5.25;;
21663;SDS011;10993;52.510;13.456;2023-06-26T17:40:43;8.32;;;5.38;;
21663;SDS011;10993;52.510;13.456;2023-06-26T17:45:44;10.17;;;5.60;;
21663;SDS011;10993;52.510;13.456;2023-06-26T17:50:45;8.73;;;5.70;;
21663;SDS011;10993;52.510;13.456;2023-06-26T17:55:46;8.60;;;5.47;;
21663;SDS011;10993;52.510;13.456;2023-06-26T18:00:46;11.27;;;5.43;;
21663;SDS011;10993;52.510;13.456;2023-06-26T18:05:48;8.88;;;5.47;;
21663;SDS011;10993;52.510;13.456;2023-06-26T18:10:48;10.73;;;5.60;;
21663;SDS011;10993;52.510;13.456;2023-06-26T18:15:49;10.47;;;5.43;;
21663;SDS011;10993;52.510;13.456;2023-06-26T18:20:53;31.10;;;15.07;;
21663;SDS011;10993;52.510;13.456;2023-06-26T18:25:54;9.73;;;5.25;;
21663;SDS011;10993;52.510;13.456;2023-06-26T18:30:54;9.80;;;5.75;;
21663;SDS011;10993;52.510;13.456;2023-06-26T18:35:56;9.02;;;5.05;;
21663;SDS011;10993;52.510;13.456;2023-06-26T18:40:56;10.27;;;6.25;;
21663;SDS011;10993;52.510;13.456;2023-06-26T18:45:57;9.38;;;5.82;;
21663;SDS011;10993;52.510;13.456;2023-06-26T18:50:58;10.43;;;5.43;;
21663;SDS011;10993;52.510;13.456;2023-06-26T18:55:59;11.75;;;7.22;;
21663;SDS011;10993;52.510;13.456;2023-06-26T19:00:59;10.40;;;5.93;;
21663;SDS011;10993;52.510;13.456;2023-06-26T19:06:01;34.83;;;14.05;;
21663;SDS011;10993;52.510;13.456;2023-06-26T19:11:01;12.50;;;6.82;;
21663;SDS011;10993;52.510;13.456;2023-06-26T19:16:02;9.18;;;5.20;;
21663;SDS011;10993;52.510;13.456;2023-06-26T19:21:04;8.65;;;5.45;;
21663;SDS011;10993;52.510;13.456;2023-06-26T19:26:04;8.77;;;5.05;;
21663;SDS011;10993;52.510;13.456;2023-06-26T19:31:06;8.95;;;4.30;;
21663;SDS011;10993;52.510;13.456;2023-06-26T19:36:08;6.97;;;4.03;;
21663;SDS011;10993;52.510;13.456;2023-06-26T19:41:08;6.70;;;3.72;;
21663;SDS011;10993;52.510;13.456;2023-06-26T19:46:08;7.70;;;3.40;;
21663;SDS011;10993;52.510;13.456;2023-06-26T19:51:10;5.53;;;3.20;;
21663;SDS011;10993;52.510;13.456;2023-06-26T19:56:10;8.25;;;3.20;;
21663;SDS011;10993;52.510;13.456;2023-06-26T20:01:11;5.60;;;3.15;;
21663;SDS011;10993;52.510;13.456;2023-06-26T20:06:12;6.17;;;2.60;;
21663;SDS011;10993;52.510;13.456;2023-06-26T20:11:13;5.90;;;2.55;;
21663;SDS011;10993;52.510;13.456;2023-06-26T20:16:13;4.53;;;2.00;;
21663;SDS011;10993;52.510;13.456;2023-06-26T20:21:15;4.68;;;1.90;;
21663;SDS011;10993;52.510;13.456;2023-06-26T20:26:16;7.78;;;2.10;;
21663;SDS011;10993;52.510;13.456;2023-06-26T20:31:16;4.73;;;2.00;;
21663;SDS011;10993;52.510;13.456;2023-06-26T20:36:18;5.60;;;2.30;;
21663;SDS011;10993;52.510;13.456;2023-06-26T20:41:19;6.30;;;2.40;;
21663;SDS011;10993;52.510;13.456;2023-06-26T20:46:20;9.30;;;2.90;;
21663;SDS011;10993;52.510;13.456;2023-06-26T20:51:29;7.07;;;2.42;;
21663;SDS011;10993;52.510;13.456;2023-06-26T20:56:30;4.75;;;1.95;;
21663;SDS011;10993;52.510;13.456;2023-06-26T21:01:30;6.28;;;2.40;;
21663;SDS011;10993;52.510;13.456;2023-06-26T21:06:32;4.83;;;2.30;;
21663;SDS011;10993;52.510;13.456;2023-06-26T21:11:32;6.05;;;2.00;;
21663;SDS011;10993;52.510;13.456;2023-06-26T21:16:32;7.28;;;2.15;;
21663;SDS011;10993;52.510;13.456;2023-06-26T21:21:34;4.67;;;1.80;;
21663;SDS011;10993;52.510;13.456;2023-06-26T21:26:36;3.60;;;1.73;;
21663;SDS011;10993;52.510;13.456;2023-06-26T21:31:37;3.10;;;1.60;;
21663;SDS011;10993;52.510;13.456;2023-06-26T21:36:39;4.70;;;1.50;;
21663;SDS011;10993;52.510;13.456;2023-06-26T21:41:39;3.60;;;1.63;;
21663;SDS011;10993;52.510;13.456;2023-06-26T21:46:39;6.90;;;2.78;;
21663;SDS011;10993;52.510;13.456;2023-06-26T21:51:41;4.40;;;1.63;;
21663;SDS011;10993;52.510;13.456;2023-06-26T21:56:42;3.80;;;1.33;;
21663;SDS011;10993;52.510;13.456;2023-06-26T22:01:42;3.50;;;1.50;;
21663;SDS011;10993;52.510;13.456;2023-06-26T22:06:44;3.00;;;1.52;;
21663;SDS011;10993;52.510;13.456;2023-06-26T22:11:44;4.10;;;1.13;;
21663;SDS011;10993;52.510;13.456;2023-06-26T22:16:44;3.58;;;1.13;;
21663;SDS011;10993;52.510;13.456;2023-06-26T22:21:46;3.63;;;1.00;;
21663;SDS011;10993;52.510;13.456;2023-06-26T22:26:46;4.55;;;1.30;;
21663;SDS011;10993;52.510;13.456;2023-06-26T22:31:47;5.17;;;1.50;;
21663;SDS011;10993;52.510;13.456;2023-06-26T22:36:48;5.05;;;1.00;;
21663;SDS011;10993;52.510;13.456;2023-06-26T22:41:49;2.60;;;1.30;;
21663;SDS011;10993;52.510;13.456;2023-06-26T22:46:49;6.83;;;2.00;;
21663;SDS011;10993;52.510;13.456;2023-06-26T22:51:51;5.70;;;1.53;;
21663;SDS011;10993;52.510;13.456;2023-06-26T22:56:51;4.55;;;1.60;;
21663;SDS011;10993;52.510;13.456;2023-06-26T23:01:52;4.75;;;1.55;;
21663;SDS011;10993;52.510;13.456;2023-06-26T23:06:54;5.75;;;1.42;;
21663;SDS011;10993;52.510;13.456;2023-06-26T23:11:56;4.72;;;1.35;;
21663;SDS011;10993;52.510;13.456;2023-06-26T23:16:57;4.20;;;1.33;;
21663;SDS011;10993;52.510;13.456;2023-06-26T23:22:05;4.78;;;1.40;;
21663;SDS011;10993;52.510;13.456;2023-06-26T23:27:12;4.18;;;1.48;;
21663;SDS011;10993;52.510;13.456;2023-06-26T23:32:12;7.28;;;1.70;;
21663;SDS011;10993;52.510;13.456;2023-06-26T23:37:14;6.18;;;1.63;;
21663;SDS011;10993;52.510;13.456;2023-06-26T23:42:25;3.78;;;1.30;;
21663;SDS011;10993;52.510;13.456;2023-06-26T23:47:26;5.30;;;1.50;;
21663;SDS011;10993;52.510;13.456;2023-06-26T23:52:28;4.70;;;1.60;;
21663;SDS011;10993;52.510;13.456;2023-06-26T23:57:29;3.10;;;1.33;;
